Stoutland, Missouri
Current Conditions -  °F | °C
As of 2:55 PM on Friday 31 Oct 2014 (Local Time) from KH21 Reporting Station
Clear Clear  
Wind Chill: 37°   Ceiling: Unl
Heat Index: 45°   Visibility: 10mi
Dew Point: 21°   Wind: 16mph
Humidity: 39%   Direction: 320°NW
Pressure: 30.36"   Gusts: 22mph
Location:  37.81°N, 92.51°W
Report Text: KH21 311955Z AUTO 32014G19KT 10SM CLR 07/M06 A3036 RMK AO2
Loading
Personal Weather Stations






























Interactive Weather Map
Tropical Storm Tracking
New forecast layout! Learn more

10-Day Weather Forecast

Advertisements
Track Severe Weather on mobile